Aérodrome :
LOGIN :

S'inscrire | Disclaimer

   EN    FR    IT 

 










Légende :    VFR   VFR Marginal   IFR   IFR Intensif   IFR Très Intensif
Visi : 
Plafond : 
>= 8 km
>= 3000ft
5 à 8 km
1000 à 3000 ft
1500m à 5 km
500 à 1000 ft
800 à 1500m
200 à 500 ft
< 800m
< 200 ft
Symboles :   Orages  Brouillard  Fortes neiges  Fortes précipitations  Vent > 20 kt
SIGMETs :   Divers  Orages  Givrage  Turbulence  Onde Orograph.  Cendres Volcan.






- Altitude de l'aérodrome : 197 ft
- Code IATA : XOG


LFMO - Orange

DERNIER METAR :
  • 110230Z AUTO 00000KT CAVOK M01/M02 Q1021 NOSIG

METARs EXPIRÉS :
  • 110200Z AUTO 35001KT CAVOK M01/M02 Q1021 NOSIG
  • 110130Z AUTO 35003KT CAVOK M01/M03 Q1021 NOSIG
  • 110100Z AUTO VRB02KT CAVOK M01/M02 Q1021 NOSIG
  • 110030Z AUTO VRB03KT CAVOK 00/M02 Q1021 NOSIG
  • 110000Z AUTO 14004KT CAVOK 01/M01 Q1021 NOSIG

TAF TAF LFMO
Valide du 10 à 21h jusqu'au 11 à 21h UTC


102000Z 1021/1121 36015G25KT CAVOK
BECMG 1022/1024 VRB02KT
BECMG 1113/1115 RA



MET'MAP, la Météo Aéronautique d'un coup d'oeil ! - Copyright ORBIFLY Décembre 2007 - Disclaimer

ORBIFLY MET'MAP TEAM :

Programmation & Développement : Alexandra Zaïnal
Sur une idée originale de : Baudouin d'Aumeries
Assistance à la programmation : Marc-Olivier Méhu
Soutien technique & logistique : Manuel Goepfert

Contact : metmap@orbifly.com




SOURCES & CREDITS :

   NOAA